Time;durP1;ratioP1;P1;durP2;ratioP2;P2;SDS_P1;SDS_P2;PMS_P1;PMS_P2;Temp;Humidity;BMP_temperature;BMP_pressure;BME280_temperature;BME280_humidity;BME280_pressure;Samples;Min_cycle;Max_cycle;Signal;HPM_P1;HPM_P2
2023/06/13 00:00:12;;;;;;;5.30;2.50;;;;;;;;;;5044210;28;20380;-59
2023/06/13 00:02:38;;;;;;;4.60;2.70;;;;;;;;;;5043665;28;20041;-59
2023/06/13 00:05:06;;;;;;;3.83;3.00;;;;;;;;;;5044105;28;20036;-58
2023/06/13 00:07:32;;;;;;;4.07;2.78;;;;;;;;;;5041715;28;20311;-58
2023/06/13 00:09:58;;;;;;;3.47;2.35;;;;;;;;;;5042596;28;20025;-58
2023/06/13 00:12:25;;;;;;;4.75;2.67;;;;;;;;;;5025789;28;20048;-58
2023/06/13 00:14:51;;;;;;;2.88;2.45;;;;;;;;;;5042645;28;20508;-58
2023/06/13 00:17:17;;;;;;;5.22;2.83;;;;;;;;;;5041608;28;20154;-58
2023/06/13 00:19:43;;;;;;;5.70;3.10;;;;;;;;;;5022610;28;20040;-58
2023/06/13 00:22:14;;;;;;;2.95;2.42;;;;;;;;;;5041479;28;20491;-58
2023/06/13 00:24:40;;;;;;;4.72;2.80;;;;;;;;;;5044787;28;20499;-60
2023/06/13 00:27:06;;;;;;;4.78;2.85;;;;;;;;;;5045292;28;20037;-58
2023/06/13 00:29:31;;;;;;;3.72;2.42;;;;;;;;;;5046494;28;20451;-58
2023/06/13 00:31:57;;;;;;;3.75;2.70;;;;;;;;;;5043933;28;20044;-59
2023/06/13 00:34:22;;;;;;;5.33;2.80;;;;;;;;;;5042464;28;20064;-59
2023/06/13 00:36:47;;;;;;;3.50;2.70;;;;;;;;;;5040194;28;20283;-58
2023/06/13 00:39:12;;;;;;;3.30;2.60;;;;;;;;;;5040898;28;20314;-61
2023/06/13 00:41:37;;;;;;;3.17;2.53;;;;;;;;;;5043809;28;20785;-58
2023/06/13 00:44:04;;;;;;;3.30;2.30;;;;;;;;;;5042230;28;20762;-58
2023/06/13 00:46:30;;;;;;;4.45;2.80;;;;;;;;;;5078503;28;20049;-58
2023/06/13 00:48:57;;;;;;;3.90;2.30;;;;;;;;;;5044217;28;20567;-59
2023/06/13 00:51:23;;;;;;;4.47;2.60;;;;;;;;;;5046007;28;20045;-60
2023/06/13 00:53:48;;;;;;;5.95;2.67;;;;;;;;;;5046159;28;20116;-60
2023/06/13 00:56:13;;;;;;;3.20;2.33;;;;;;;;;;5046106;28;20037;-60
2023/06/13 00:58:38;;;;;;;4.57;2.77;;;;;;;;;;5047811;28;20041;-61
2023/06/13 01:01:04;;;;;;;3.70;2.37;;;;;;;;;;5047959;28;20063;-60
2023/06/13 01:03:33;;;;;;;3.95;2.33;;;;;;;;;;5062231;28;20124;-60
2023/06/13 01:05:58;;;;;;;3.60;2.42;;;;;;;;;;5045332;28;20058;-60
2023/06/13 01:08:24;;;;;;;4.73;2.40;;;;;;;;;;5045164;28;20052;-60
2023/06/13 01:11:06;;;;;;;2.95;2.40;;;;;;;;;;5061526;28;20685;-58
2023/06/13 01:13:34;;;;;;;5.00;2.35;;;;;;;;;;5029277;28;20052;-60
2023/06/13 01:16:09;;;;;;;2.70;2.10;;;;;;;;;;5042414;28;20547;-60
2023/06/13 01:18:35;;;;;;;3.35;2.05;;;;;;;;;;5037695;28;20045;-60
2023/06/13 01:21:00;;;;;;;3.90;2.33;;;;;;;;;;5046835;28;20131;-58
2023/06/13 01:23:25;;;;;;;4.03;2.28;;;;;;;;;;5047317;28;20072;-58
2023/06/13 01:26:09;;;;;;;3.77;2.20;;;;;;;;;;5046780;28;20036;-59
2023/06/13 01:28:35;;;;;;;3.88;2.33;;;;;;;;;;5045937;28;20437;-59
2023/06/13 01:31:05;;;;;;;4.68;2.35;;;;;;;;;;5044419;28;20548;-59
2023/06/13 01:33:30;;;;;;;2.47;2.25;;;;;;;;;;5044267;28;20048;-59
2023/06/13 01:35:55;;;;;;;4.77;1.90;;;;;;;;;;5043887;28;20037;-59
2023/06/13 01:38:21;;;;;;;3.87;2.37;;;;;;;;;;5045073;28;20292;-59
2023/06/13 01:40:47;;;;;;;5.10;2.13;;;;;;;;;;5046839;28;20312;-59
2023/06/13 01:43:12;;;;;;;3.33;2.40;;;;;;;;;;5061347;28;20037;-59
2023/06/13 01:45:38;;;;;;;3.00;2.20;;;;;;;;;;5045239;28;20033;-59
2023/06/13 01:48:08;;;;;;;4.03;2.27;;;;;;;;;;5042398;28;20053;-59
2023/06/13 01:50:52;;;;;;;2.67;2.20;;;;;;;;;;5044506;28;20279;-59
2023/06/13 01:53:23;;;;;;;3.10;2.30;;;;;;;;;;5046514;28;20349;-59
2023/06/13 01:55:51;;;;;;;4.32;2.30;;;;;;;;;;5044187;28;20045;-59
2023/06/13 01:58:16;;;;;;;3.22;2.50;;;;;;;;;;5078240;28;20483;-59
2023/06/13 02:00:42;;;;;;;8.82;2.45;;;;;;;;;;5046529;28;20139;-59
2023/06/13 02:03:07;;;;;;;4.88;2.00;;;;;;;;;;5044430;28;20110;-59
2023/06/13 02:05:33;;;;;;;4.88;2.30;;;;;;;;;;5046609;28;20375;-59
2023/06/13 02:07:58;;;;;;;3.63;2.28;;;;;;;;;;5046231;28;20114;-59
2023/06/13 02:10:24;;;;;;;5.30;2.17;;;;;;;;;;5045001;28;20017;-59
2023/06/13 02:12:49;;;;;;;5.47;2.28;;;;;;;;;;5046120;28;20061;-59
2023/06/13 02:15:14;;;;;;;4.50;2.30;;;;;;;;;;5045586;28;20025;-59
2023/06/13 02:17:40;;;;;;;3.10;2.60;;;;;;;;;;5046033;28;20742;-59
2023/06/13 02:20:06;;;;;;;3.55;2.25;;;;;;;;;;5046329;28;20260;-59
2023/06/13 02:22:32;;;;;;;5.75;2.65;;;;;;;;;;5077415;28;20101;-59
2023/06/13 02:24:57;;;;;;;7.45;2.78;;;;;;;;;;5043987;28;20016;-59
2023/06/13 02:27:22;;;;;;;3.40;2.37;;;;;;;;;;5045462;28;20502;-59
2023/06/13 02:29:48;;;;;;;6.57;2.90;;;;;;;;;;5043808;28;20366;-59
2023/06/13 02:32:13;;;;;;;3.83;2.67;;;;;;;;;;5043273;28;20021;-59
2023/06/13 02:34:38;;;;;;;3.67;2.40;;;;;;;;;;5044640;28;20458;-59
2023/06/13 02:37:04;;;;;;;5.30;2.90;;;;;;;;;;5044879;28;20052;-58
2023/06/13 02:39:29;;;;;;;4.13;2.47;;;;;;;;;;5033728;28;20712;-60
2023/06/13 02:41:54;;;;;;;4.00;2.40;;;;;;;;;;5032126;28;20544;-60
2023/06/13 02:44:20;;;;;;;3.42;2.00;;;;;;;;;;5013586;28;20684;-59
2023/06/13 02:46:45;;;;;;;4.00;2.47;;;;;;;;;;5064564;28;20356;-60
2023/06/13 02:49:10;;;;;;;5.37;2.63;;;;;;;;;;5062285;28;20582;-60
2023/06/13 02:51:35;;;;;;;3.33;2.20;;;;;;;;;;5013325;28;20542;-58
2023/06/13 02:54:01;;;;;;;5.35;2.35;;;;;;;;;;5030753;28;20091;-59
2023/06/13 02:56:28;;;;;;;5.95;2.80;;;;;;;;;;5029647;28;20032;-60
2023/06/13 02:58:54;;;;;;;4.75;2.05;;;;;;;;;;5045130;28;20013;-59
2023/06/13 03:01:19;;;;;;;4.43;2.30;;;;;;;;;;5034146;28;20241;-60
2023/06/13 03:03:47;;;;;;;4.57;2.55;;;;;;;;;;5031835;28;20036;-60
2023/06/13 03:06:12;;;;;;;3.97;2.28;;;;;;;;;;5063242;28;20665;-60
2023/06/13 03:08:38;;;;;;;6.75;2.60;;;;;;;;;;5045471;28;20056;-60
2023/06/13 03:11:03;;;;;;;4.35;2.25;;;;;;;;;;5030971;28;20041;-59
2023/06/13 03:13:28;;;;;;;3.83;2.30;;;;;;;;;;5034048;28;20045;-59
2023/06/13 03:15:56;;;;;;;4.15;2.30;;;;;;;;;;5028302;28;20299;-58
2023/06/13 03:18:23;;;;;;;3.65;2.20;;;;;;;;;;5030665;28;20041;-59
2023/06/13 03:20:49;;;;;;;4.63;2.80;;;;;;;;;;5033235;28;20036;-59
2023/06/13 03:23:16;;;;;;;4.65;2.63;;;;;;;;;;5062157;28;20037;-58
2023/06/13 03:25:42;;;;;;;4.90;2.78;;;;;;;;;;5030677;28;20037;-58
2023/06/13 03:28:07;;;;;;;3.85;2.70;;;;;;;;;;5027996;28;20365;-59
2023/06/13 03:30:33;;;;;;;4.10;2.40;;;;;;;;;;5029693;28;20069;-59
2023/06/13 03:32:58;;;;;;;4.43;2.53;;;;;;;;;;5029003;28;20072;-59
2023/06/13 03:35:24;;;;;;;4.60;2.53;;;;;;;;;;5061786;28;20432;-60
2023/06/13 03:37:49;;;;;;;4.97;2.78;;;;;;;;;;5030071;28;20546;-58
2023/06/13 03:40:14;;;;;;;4.10;2.73;;;;;;;;;;5028930;28;20033;-59
2023/06/13 03:42:39;;;;;;;5.07;2.80;;;;;;;;;;5030223;28;20821;-59
2023/06/13 03:45:05;;;;;;;4.27;2.83;;;;;;;;;;5026881;28;20627;-59
2023/06/13 03:47:30;;;;;;;5.72;3.00;;;;;;;;;;5025990;28;20491;-59
2023/06/13 03:49:55;;;;;;;6.82;3.38;;;;;;;;;;5028497;28;20045;-59
2023/06/13 03:52:21;;;;;;;4.53;3.30;;;;;;;;;;5027337;28;20041;-59
2023/06/13 03:54:46;;;;;;;3.73;3.20;;;;;;;;;;5030561;28;20439;-59
2023/06/13 03:57:12;;;;;;;8.00;3.67;;;;;;;;;;5061152;28;20045;-60
2023/06/13 03:59:37;;;;;;;5.15;3.25;;;;;;;;;;5029319;28;20368;-59
2023/06/13 04:02:03;;;;;;;3.95;3.40;;;;;;;;;;5031244;28;20115;-60
2023/06/13 04:04:28;;;;;;;5.05;3.50;;;;;;;;;;5032196;28;20510;-60
2023/06/13 04:06:55;;;;;;;4.63;3.57;;;;;;;;;;5028220;28;20136;-59
2023/06/13 04:09:20;;;;;;;4.80;3.63;;;;;;;;;;5028508;28;20091;-59
2023/06/13 04:11:46;;;;;;;5.07;3.65;;;;;;;;;;5031873;28;20510;-59
2023/06/13 04:14:11;;;;;;;8.73;4.50;;;;;;;;;;5028439;28;20038;-59
2023/06/13 04:16:36;;;;;;;7.07;4.40;;;;;;;;;;5027956;28;20068;-59
2023/06/13 04:19:01;;;;;;;6.57;4.60;;;;;;;;;;5032390;28;20705;-59
2023/06/13 04:21:27;;;;;;;5.97;4.03;;;;;;;;;;5028383;28;20288;-59
2023/06/13 04:23:52;;;;;;;5.32;4.40;;;;;;;;;;5026506;28;20287;-59
2023/06/13 04:26:18;;;;;;;7.15;4.47;;;;;;;;;;5029021;28;20120;-59
2023/06/13 04:28:43;;;;;;;6.72;5.10;;;;;;;;;;5027976;28;20045;-61
2023/06/13 04:31:10;;;;;;;7.97;4.82;;;;;;;;;;5049750;28;20641;-59
2023/06/13 04:33:37;;;;;;;5.40;4.07;;;;;;;;;;5062119;28;20045;-59
2023/06/13 04:36:05;;;;;;;6.20;3.90;;;;;;;;;;5028281;28;20037;-60
2023/06/13 04:38:31;;;;;;;5.38;3.65;;;;;;;;;;5033103;28;21078;-59
2023/06/13 04:40:57;;;;;;;8.98;3.90;;;;;;;;;;5027762;28;20044;-60
2023/06/13 04:43:22;;;;;;;5.65;3.30;;;;;;;;;;5029369;28;20120;-59
2023/06/13 04:45:48;;;;;;;5.15;3.28;;;;;;;;;;5028555;28;20142;-59
2023/06/13 04:48:14;;;;;;;5.38;3.42;;;;;;;;;;5026457;28;20053;-59
2023/06/13 04:50:40;;;;;;;5.22;3.33;;;;;;;;;;5026830;28;20057;-58
2023/06/13 04:53:07;;;;;;;4.88;3.33;;;;;;;;;;5029185;28;20037;-59
2023/06/13 04:55:35;;;;;;;5.72;3.20;;;;;;;;;;5050131;28;20029;-59
2023/06/13 04:58:00;;;;;;;6.38;3.78;;;;;;;;;;5061717;28;20041;-59
2023/06/13 05:00:26;;;;;;;4.13;3.50;;;;;;;;;;5022984;28;20067;-59
2023/06/13 05:02:51;;;;;;;3.80;3.20;;;;;;;;;;5029955;28;21615;-60
2023/06/13 05:05:18;;;;;;;3.80;3.17;;;;;;;;;;5030906;28;20439;-59
2023/06/13 05:07:43;;;;;;;4.30;3.00;;;;;;;;;;5027537;28;20526;-60
2023/06/13 05:10:09;;;;;;;9.07;5.32;;;;;;;;;;5060789;28;20033;-61
2023/06/13 05:12:34;;;;;;;11.35;6.90;;;;;;;;;;5029345;28;20044;-60
2023/06/13 05:14:59;;;;;;;10.05;6.38;;;;;;;;;;5027612;28;20042;-60
2023/06/13 05:17:27;;;;;;;10.73;6.97;;;;;;;;;;5027656;28;20181;-60
2023/06/13 05:19:53;;;;;;;11.38;7.05;;;;;;;;;;5006207;28;21305;-60
2023/06/13 05:22:18;;;;;;;13.40;6.90;;;;;;;;;;5024454;28;20454;-61
2023/06/13 05:24:44;;;;;;;11.27;7.20;;;;;;;;;;5043138;28;20061;-60
2023/06/13 05:27:09;;;;;;;11.30;7.07;;;;;;;;;;5037650;28;20036;-62
2023/06/13 05:29:35;;;;;;;11.40;6.95;;;;;;;;;;5059251;28;20048;-60
2023/06/13 05:32:00;;;;;;;11.88;7.93;;;;;;;;;;5034052;28;20033;-61
2023/06/13 05:34:26;;;;;;;13.20;8.57;;;;;;;;;;5032614;28;20400;-60
2023/06/13 05:36:52;;;;;;;10.15;7.43;;;;;;;;;;5033209;28;20302;-60
2023/06/13 05:39:18;;;;;;;12.32;6.85;;;;;;;;;;5064736;28;20387;-60
2023/06/13 05:41:43;;;;;;;10.10;6.85;;;;;;;;;;5033940;28;20111;-60
2023/06/13 05:44:09;;;;;;;11.00;6.55;;;;;;;;;;5054198;28;20103;-60
2023/06/13 05:46:34;;;;;;;8.95;6.10;;;;;;;;;;5029520;28;20055;-61
2023/06/13 05:48:59;;;;;;;8.43;6.03;;;;;;;;;;5030035;28;20087;-60
2023/06/13 05:51:24;;;;;;;7.28;5.57;;;;;;;;;;5034901;28;20954;-60
2023/06/13 05:53:50;;;;;;;7.17;5.30;;;;;;;;;;5031822;28;20033;-60
2023/06/13 05:56:15;;;;;;;7.13;5.72;;;;;;;;;;5030717;28;20757;-61
2023/06/13 05:58:41;;;;;;;6.47;4.80;;;;;;;;;;5031398;28;20033;-61
2023/06/13 06:01:06;;;;;;;7.65;5.05;;;;;;;;;;5064009;28;20169;-61
2023/06/13 06:03:33;;;;;;;6.05;4.32;;;;;;;;;;5052265;28;20036;-61
2023/06/13 06:05:58;;;;;;;6.03;4.45;;;;;;;;;;5036292;28;20084;-61
2023/06/13 06:08:24;;;;;;;5.97;3.90;;;;;;;;;;5029608;28;20049;-61
2023/06/13 06:10:49;;;;;;;5.28;4.05;;;;;;;;;;5029761;28;20299;-61
2023/06/13 06:13:14;;;;;;;4.45;3.80;;;;;;;;;;5029926;28;20049;-61
2023/06/13 06:15:40;;;;;;;6.35;4.35;;;;;;;;;;5031833;28;20131;-61
2023/06/13 06:18:06;;;;;;;6.38;4.05;;;;;;;;;;5063049;28;20049;-61
2023/06/13 06:20:31;;;;;;;4.95;3.65;;;;;;;;;;5063298;28;20395;-60
2023/06/13 06:22:56;;;;;;;5.00;3.27;;;;;;;;;;5035567;28;20522;-61
2023/06/13 06:25:22;;;;;;;4.90;3.60;;;;;;;;;;5052766;28;20322;-61
2023/06/13 06:27:47;;;;;;;4.30;3.60;;;;;;;;;;5042754;28;20052;-62
2023/06/13 06:30:12;;;;;;;9.23;3.95;;;;;;;;;;5045061;28;20045;-62
2023/06/13 06:32:38;;;;;;;5.80;3.50;;;;;;;;;;5044499;28;20033;-62
2023/06/13 06:35:04;;;;;;;5.03;3.80;;;;;;;;;;5044936;28;20053;-59
2023/06/13 06:37:29;;;;;;;5.80;3.72;;;;;;;;;;5046434;28;20863;-59
2023/06/13 06:39:54;;;;;;;4.57;3.60;;;;;;;;;;5046661;28;20053;-60
2023/06/13 06:42:19;;;;;;;4.70;3.77;;;;;;;;;;5026491;28;20040;-60
2023/06/13 06:44:45;;;;;;;6.30;3.85;;;;;;;;;;5046677;28;20090;-59
2023/06/13 06:47:10;;;;;;;6.25;3.58;;;;;;;;;;5046205;28;20033;-60
2023/06/13 06:49:35;;;;;;;5.90;3.90;;;;;;;;;;5046744;28;20633;-60
2023/06/13 06:52:00;;;;;;;6.40;3.80;;;;;;;;;;5045623;28;20299;-59
2023/06/13 06:54:26;;;;;;;5.28;3.63;;;;;;;;;;5078428;28;20288;-60
2023/06/13 06:56:51;;;;;;;6.00;3.60;;;;;;;;;;5045782;28;20079;-59
2023/06/13 06:59:16;;;;;;;4.83;3.57;;;;;;;;;;5078516;28;20099;-60
2023/06/13 07:01:42;;;;;;;4.37;3.40;;;;;;;;;;5045467;28;20402;-59
2023/06/13 07:04:07;;;;;;;5.10;3.67;;;;;;;;;;5045216;28;20067;-59
2023/06/13 07:06:32;;;;;;;5.13;3.88;;;;;;;;;;5045620;28;20064;-60
2023/06/13 07:08:57;;;;;;;4.87;3.40;;;;;;;;;;5045806;28;20037;-60
2023/06/13 07:11:23;;;;;;;4.93;3.58;;;;;;;;;;5045273;28;20281;-60
2023/06/13 07:13:48;;;;;;;5.77;3.73;;;;;;;;;;5027443;28;20352;-59
2023/06/13 07:16:13;;;;;;;5.10;3.55;;;;;;;;;;5060045;28;20287;-59
2023/06/13 07:18:39;;;;;;;5.63;3.50;;;;;;;;;;5045950;28;20047;-60
2023/06/13 07:21:04;;;;;;;5.47;3.50;;;;;;;;;;5060321;28;20287;-60
2023/06/13 07:23:29;;;;;;;5.27;3.30;;;;;;;;;;5045507;28;20522;-60
2023/06/13 07:25:54;;;;;;;4.22;3.42;;;;;;;;;;5043580;28;20693;-60
2023/06/13 07:28:20;;;;;;;6.13;3.10;;;;;;;;;;5045138;28;20083;-59
2023/06/13 07:30:46;;;;;;;4.80;3.47;;;;;;;;;;5039898;28;20040;-60
2023/06/13 07:33:12;;;;;;;5.67;3.10;;;;;;;;;;5044648;28;20519;-60
2023/06/13 07:35:37;;;;;;;5.13;3.63;;;;;;;;;;5045913;28;20284;-60
2023/06/13 07:38:03;;;;;;;5.47;3.30;;;;;;;;;;5045562;28;20102;-60
2023/06/13 07:40:28;;;;;;;4.50;3.58;;;;;;;;;;5043703;28;20159;-59
2023/06/13 07:42:54;;;;;;;5.68;3.63;;;;;;;;;;5045183;28;20044;-60
2023/06/13 07:45:20;;;;;;;5.03;3.92;;;;;;;;;;5043372;28;20040;-60
2023/06/13 07:47:45;;;;;;;6.47;4.00;;;;;;;;;;5044868;28;20045;-60
2023/06/13 07:50:10;;;;;;;6.07;4.33;;;;;;;;;;5044168;28;20577;-60
2023/06/13 07:52:35;;;;;;;6.83;3.87;;;;;;;;;;5044187;28;20295;-60
2023/06/13 07:55:01;;;;;;;7.65;4.10;;;;;;;;;;5014253;28;20295;-60
2023/06/13 07:57:26;;;;;;;6.37;4.00;;;;;;;;;;5026778;28;20041;-60
2023/06/13 07:59:52;;;;;;;5.37;3.57;;;;;;;;;;5044569;28;20793;-60
2023/06/13 08:02:17;;;;;;;6.43;4.35;;;;;;;;;;5044048;28;20341;-59
2023/06/13 08:04:44;;;;;;;5.60;4.60;;;;;;;;;;5044978;28;20037;-60
2023/06/13 08:07:09;;;;;;;7.38;4.72;;;;;;;;;;5026806;28;20279;-60
2023/06/13 08:09:34;;;;;;;6.33;4.70;;;;;;;;;;5026214;28;20503;-60
2023/06/13 08:11:59;;;;;;;6.75;4.65;;;;;;;;;;5026354;28;20283;-60
2023/06/13 08:14:25;;;;;;;7.13;5.20;;;;;;;;;;5044461;28;20425;-60
2023/06/13 08:16:50;;;;;;;8.13;5.30;;;;;;;;;;5044728;28;20037;-60
2023/06/13 08:19:15;;;;;;;8.02;5.53;;;;;;;;;;5044362;28;20286;-61
2023/06/13 08:21:40;;;;;;;8.23;5.30;;;;;;;;;;5044061;28;20550;-60
2023/06/13 08:24:06;;;;;;;9.50;6.00;;;;;;;;;;5030934;28;20490;-60
2023/06/13 08:26:34;;;;;;;6.80;5.53;;;;;;;;;;5010039;28;20045;-59
2023/06/13 08:29:02;;;;;;;7.78;5.90;;;;;;;;;;5042296;28;20048;-59
2023/06/13 08:31:29;;;;;;;7.07;5.50;;;;;;;;;;5026643;28;20468;-59
2023/06/13 08:33:58;;;;;;;8.98;5.55;;;;;;;;;;5026119;28;20523;-60
2023/06/13 08:36:23;;;;;;;8.70;6.13;;;;;;;;;;5044581;28;20033;-59
2023/06/13 08:38:48;;;;;;;7.97;6.00;;;;;;;;;;5026060;28;20037;-59
2023/06/13 08:41:14;;;;;;;8.50;5.50;;;;;;;;;;5011035;28;20029;-60
2023/06/13 08:43:40;;;;;;;7.75;5.60;;;;;;;;;;5039999;28;20283;-59
2023/06/13 08:46:05;;;;;;;7.30;5.72;;;;;;;;;;5043305;28;20479;-59
2023/06/13 08:48:32;;;;;;;7.77;5.57;;;;;;;;;;5024614;28;20136;-61
2023/06/13 08:50:59;;;;;;;8.23;5.78;;;;;;;;;;5039043;28;20052;-61
2023/06/13 08:53:25;;;;;;;8.38;6.32;;;;;;;;;;5041776;28;20041;-61
2023/06/13 08:55:50;;;;;;;7.87;5.37;;;;;;;;;;5043721;28;20044;-61
2023/06/13 08:58:15;;;;;;;6.68;5.70;;;;;;;;;;5043768;28;20374;-61
2023/06/13 09:00:41;;;;;;;6.72;4.85;;;;;;;;;;5042509;28;20115;-61
2023/06/13 09:03:12;;;;;;;5.78;4.30;;;;;;;;;;5040318;28;20405;-60
2023/06/13 09:05:37;;;;;;;6.47;4.40;;;;;;;;;;5026083;28;20163;-60
2023/06/13 09:08:02;;;;;;;5.43;4.13;;;;;;;;;;5046290;28;20052;-61
2023/06/13 09:10:28;;;;;;;4.75;3.83;;;;;;;;;;5048062;28;20279;-61
2023/06/13 09:12:53;;;;;;;6.93;4.20;;;;;;;;;;5062525;28;20523;-61
2023/06/13 09:15:18;;;;;;;5.00;3.50;;;;;;;;;;5046656;28;20512;-61
2023/06/13 09:17:43;;;;;;;4.50;3.93;;;;;;;;;;5046305;28;20295;-60
2023/06/13 09:20:09;;;;;;;4.37;3.50;;;;;;;;;;5045975;28;20438;-60
2023/06/13 09:22:37;;;;;;;3.78;3.25;;;;;;;;;;5046044;28;20382;-61
2023/06/13 09:25:04;;;;;;;5.10;3.60;;;;;;;;;;5035044;28;20094;-60
2023/06/13 09:27:29;;;;;;;6.25;3.47;;;;;;;;;;5049543;28;20132;-60
2023/06/13 09:29:57;;;;;;;5.03;3.72;;;;;;;;;;5079238;28;20124;-61
2023/06/13 09:32:23;;;;;;;7.05;3.88;;;;;;;;;;5079114;28;20380;-61
2023/06/13 09:34:48;;;;;;;5.63;3.85;;;;;;;;;;5046033;28;20032;-61
2023/06/13 09:37:14;;;;;;;5.10;3.85;;;;;;;;;;5047036;28;20205;-61
2023/06/13 09:39:45;;;;;;;6.77;3.80;;;;;;;;;;5045671;28;20044;-61
2023/06/13 09:42:11;;;;;;;7.07;4.63;;;;;;;;;;5062777;28;20041;-61
2023/06/13 09:44:36;;;;;;;5.93;4.70;;;;;;;;;;5047006;28;20046;-61
2023/06/13 09:47:01;;;;;;;5.73;4.43;;;;;;;;;;5047075;28;20781;-61
2023/06/13 09:49:33;;;;;;;6.70;4.78;;;;;;;;;;5078831;28;20306;-61
2023/06/13 09:52:01;;;;;;;7.38;5.32;;;;;;;;;;5046663;28;20166;-60
2023/06/13 09:54:29;;;;;;;7.70;5.00;;;;;;;;;;5045560;28;20047;-61
2023/06/13 09:56:55;;;;;;;7.70;5.53;;;;;;;;;;5047664;28;20119;-60
2023/06/13 09:59:20;;;;;;;7.30;5.35;;;;;;;;;;5062207;28;20116;-60
2023/06/13 10:01:47;;;;;;;7.35;5.82;;;;;;;;;;5044831;28;20166;-60
2023/06/13 10:04:12;;;;;;;7.95;5.50;;;;;;;;;;5045942;28;20147;-60
2023/06/13 10:06:37;;;;;;;7.13;5.30;;;;;;;;;;5028209;28;20430;-61
2023/06/13 10:09:02;;;;;;;7.20;5.50;;;;;;;;;;5045382;28;20314;-61
2023/06/13 10:11:29;;;;;;;6.50;5.27;;;;;;;;;;5074104;28;20284;-61
2023/06/13 10:13:55;;;;;;;7.20;4.85;;;;;;;;;;5015813;28;20286;-61
2023/06/13 10:16:21;;;;;;;7.22;5.50;;;;;;;;;;5043957;28;20513;-61
2023/06/13 10:18:46;;;;;;;7.00;5.18;;;;;;;;;;5058489;28;20057;-61
2023/06/13 10:21:13;;;;;;;7.00;5.10;;;;;;;;;;5042910;28;20550;-61
2023/06/13 10:23:40;;;;;;;7.68;5.90;;;;;;;;;;5044916;28;20032;-61
2023/06/13 10:26:08;;;;;;;7.82;5.93;;;;;;;;;;5044387;28;20037;-61
2023/06/13 10:28:39;;;;;;;7.53;6.03;;;;;;;;;;5046556;28;20420;-59
2023/06/13 10:31:17;;;;;;;7.60;5.38;;;;;;;;;;5045813;28;20033;-59
2023/06/13 10:34:00;;;;;;;11.30;6.38;;;;;;;;;;5044574;28;20501;-58
2023/06/13 10:36:41;;;;;;;9.80;6.03;;;;;;;;;;5046157;28;20041;-59
2023/06/13 10:39:10;;;;;;;8.23;5.78;;;;;;;;;;5045935;28;20425;-59
2023/06/13 10:41:54;;;;;;;9.95;5.60;;;;;;;;;;5051481;28;20477;-58
2023/06/13 10:44:31;;;;;;;9.38;5.50;;;;;;;;;;5033253;28;20052;-59
2023/06/13 10:46:57;;;;;;;6.57;5.03;;;;;;;;;;5046866;28;20479;-59
2023/06/13 10:49:22;;;;;;;7.72;5.32;;;;;;;;;;5044441;28;20061;-59
2023/06/13 10:51:47;;;;;;;7.30;5.35;;;;;;;;;;5045293;28;20048;-59
2023/06/13 10:54:13;;;;;;;7.93;6.03;;;;;;;;;;5044199;28;20033;-59
2023/06/13 10:56:41;;;;;;;8.95;6.63;;;;;;;;;;5045376;28;20036;-61
2023/06/13 10:59:10;;;;;;;8.80;6.10;;;;;;;;;;5061378;28;20136;-61
2023/06/13 11:01:36;;;;;;;9.23;6.40;;;;;;;;;;5045644;28;20044;-61
2023/06/13 11:04:05;;;;;;;8.45;6.18;;;;;;;;;;5040679;28;20036;-61
2023/06/13 11:06:31;;;;;;;6.97;5.55;;;;;;;;;;5027255;28;20051;-61
2023/06/13 11:09:08;;;;;;;8.23;6.27;;;;;;;;;;5058311;28;20046;-60
2023/06/13 11:11:46;;;;;;;9.45;6.10;;;;;;;;;;5043869;28;20290;-60
2023/06/13 11:14:12;;;;;;;7.65;5.95;;;;;;;;;;5040863;28;20061;-60
2023/06/13 11:16:38;;;;;;;8.07;5.80;;;;;;;;;;5026569;28;20560;-60
2023/06/13 11:19:16;;;;;;;7.35;5.28;;;;;;;;;;5023803;28;20037;-60
2023/06/13 11:22:00;;;;;;;9.20;5.80;;;;;;;;;;5015401;28;20132;-60
2023/06/13 11:24:29;;;;;;;7.75;5.93;;;;;;;;;;5045052;28;20069;-60
2023/06/13 11:26:55;;;;;;;7.75;5.25;;;;;;;;;;5043657;28;20079;-60
2023/06/13 11:29:20;;;;;;;6.68;5.18;;;;;;;;;;5044419;28;20083;-60
2023/06/13 11:31:45;;;;;;;8.82;5.35;;;;;;;;;;5042913;28;20033;-60
2023/06/13 11:34:14;;;;;;;6.37;4.87;;;;;;;;;;5044915;28;20029;-60
2023/06/13 11:36:41;;;;;;;8.02;4.63;;;;;;;;;;5060125;28;22111;-59
2023/06/13 11:39:09;;;;;;;7.63;4.95;;;;;;;;;;5044193;28;20074;-60
2023/06/13 11:41:34;;;;;;;6.43;4.95;;;;;;;;;;5028078;28;20529;-61
2023/06/13 11:43:59;;;;;;;6.47;4.57;;;;;;;;;;5013739;28;20159;-60
2023/06/13 11:46:24;;;;;;;7.67;4.70;;;;;;;;;;5045417;28;20458;-61
2023/06/13 11:48:54;;;;;;;7.15;4.78;;;;;;;;;;5044725;28;20301;-61
2023/06/13 11:51:19;;;;;;;7.55;5.38;;;;;;;;;;5077447;28;20071;-60
2023/06/13 11:53:48;;;;;;;6.68;4.82;;;;;;;;;;5044584;28;20021;-61
2023/06/13 11:56:15;;;;;;;8.23;5.22;;;;;;;;;;5048571;28;20024;-61
2023/06/13 11:58:40;;;;;;;8.00;5.22;;;;;;;;;;5069739;28;20094;-61
2023/06/13 12:01:05;;;;;;;6.20;4.97;;;;;;;;;;5051958;28;20490;-58
2023/06/13 12:03:33;;;;;;;9.18;5.55;;;;;;;;;;5043827;28;20283;-59
2023/06/13 12:05:58;;;;;;;10.75;5.63;;;;;;;;;;5036421;28;20036;-60
2023/06/13 12:08:23;;;;;;;8.10;5.17;;;;;;;;;;5061951;28;20376;-59
2023/06/13 12:10:48;;;;;;;8.80;5.57;;;;;;;;;;5024815;28;20114;-66
2023/06/13 12:13:17;;;;;;;9.80;5.87;;;;;;;;;;5082364;28;20358;-60
2023/06/13 12:15:42;;;;;;;10.15;6.00;;;;;;;;;;5066542;28;20329;-60
2023/06/13 12:18:08;;;;;;;10.65;6.13;;;;;;;;;;5051773;28;20028;-60
2023/06/13 12:20:36;;;;;;;9.15;5.68;;;;;;;;;;5051480;28;20060;-60
2023/06/13 12:23:01;;;;;;;8.10;5.80;;;;;;;;;;5031631;28;20102;-58
2023/06/13 12:25:28;;;;;;;11.48;6.18;;;;;;;;;;5047925;28;20104;-60
2023/06/13 12:27:56;;;;;;;10.38;6.78;;;;;;;;;;5047015;28;20138;-60
2023/06/13 12:30:21;;;;;;;10.18;7.00;;;;;;;;;;5026735;28;20171;-60
2023/06/13 12:32:48;;;;;;;10.50;6.78;;;;;;;;;;5056143;28;20097;-61
2023/06/13 12:35:17;;;;;;;9.90;6.57;;;;;;;;;;5044031;28;20044;-60
2023/06/13 12:37:42;;;;;;;10.60;6.75;;;;;;;;;;5037075;28;20044;-60
2023/06/13 12:40:12;;;;;;;10.63;6.40;;;;;;;;;;5047310;28;20376;-60
2023/06/13 12:42:42;;;;;;;10.50;6.25;;;;;;;;;;5045528;28;20876;-60
2023/06/13 12:45:07;;;;;;;;;;;;;;;;;;5049772;28;20483;-60
2023/06/13 12:47:32;;;;;;;9.30;6.93;;;;;;;;;;5047536;28;20363;-60
2023/06/13 12:50:05;;;;;;;10.27;7.07;;;;;;;;;;5034409;28;20410;-61
2023/06/13 12:52:31;;;;;;;9.30;6.28;;;;;;;;;;5045901;28;20843;-60
2023/06/13 12:55:01;;;;;;;10.75;6.50;;;;;;;;;;5046507;28;20037;-60
2023/06/13 12:57:26;;;;;;;8.63;5.63;;;;;;;;;;5062684;28;20087;-59
2023/06/13 12:59:52;;;;;;;9.38;5.90;;;;;;;;;;5064945;28;20087;-59
2023/06/13 13:02:19;;;;;;;7.88;6.00;;;;;;;;;;5052799;28;20040;-60
2023/06/13 13:04:45;;;;;;;11.10;6.22;;;;;;;;;;5047625;28;20071;-62
2023/06/13 13:07:13;;;;;;;8.75;6.38;;;;;;;;;;5072813;28;20041;-62
2023/06/13 13:09:40;;;;;;;10.48;6.18;;;;;;;;;;5054619;28;20544;-60
2023/06/13 13:12:06;;;;;;;8.98;5.80;;;;;;;;;;5049697;28;20044;-60
2023/06/13 13:14:31;;;;;;;8.98;6.18;;;;;;;;;;5047034;28;20041;-60
2023/06/13 13:16:57;;;;;;;9.57;5.88;;;;;;;;;;5047607;28;20029;-60
2023/06/13 13:19:22;;;;;;;8.15;5.90;;;;;;;;;;5045512;28;20502;-60
2023/06/13 13:21:48;;;;;;;9.85;5.43;;;;;;;;;;5062273;28;20138;-60
2023/06/13 13:24:13;;;;;;;9.05;6.07;;;;;;;;;;5078154;28;20041;-60
2023/06/13 13:26:39;;;;;;;9.27;5.80;;;;;;;;;;5047222;28;20029;-60
2023/06/13 13:29:04;;;;;;;7.95;5.57;;;;;;;;;;5042594;28;20488;-60
2023/06/13 13:31:29;;;;;;;8.82;5.65;;;;;;;;;;5053241;28;20033;-60
2023/06/13 13:33:55;;;;;;;7.15;5.13;;;;;;;;;;5044516;28;20476;-60
2023/06/13 13:36:21;;;;;;;9.00;5.65;;;;;;;;;;5079344;28;20053;-60
2023/06/13 13:38:47;;;;;;;10.00;5.97;;;;;;;;;;5045318;28;20565;-60
2023/06/13 13:41:12;;;;;;;9.93;6.10;;;;;;;;;;5044665;28;20311;-60
2023/06/13 13:43:37;;;;;;;9.50;5.40;;;;;;;;;;5035314;28;20086;-60
2023/06/13 13:46:03;;;;;;;11.40;5.87;;;;;;;;;;5045511;28;20407;-60
2023/06/13 13:48:28;;;;;;;9.07;6.07;;;;;;;;;;5070693;28;20071;-61
2023/06/13 13:50:53;;;;;;;8.13;5.10;;;;;;;;;;5044009;28;20067;-60
2023/06/13 13:53:18;;;;;;;8.93;5.40;;;;;;;;;;5045384;28;20069;-60
2023/06/13 13:55:44;;;;;;;8.47;5.50;;;;;;;;;;5045507;28;20272;-60
2023/06/13 13:58:09;;;;;;;8.10;5.78;;;;;;;;;;5028362;28;20726;-60
2023/06/13 14:00:35;;;;;;;8.33;5.00;;;;;;;;;;5028593;28;20095;-60
2023/06/13 14:03:00;;;;;;;10.30;5.85;;;;;;;;;;5078401;28;20834;-61
2023/06/13 14:05:25;;;;;;;7.13;5.00;;;;;;;;;;5049658;28;20462;-60
2023/06/13 14:07:51;;;;;;;7.27;5.40;;;;;;;;;;5077766;28;20315;-60
2023/06/13 14:10:16;;;;;;;7.23;5.30;;;;;;;;;;5028073;28;20280;-60
2023/06/13 14:12:43;;;;;;;7.43;5.72;;;;;;;;;;5044653;28;20801;-60
2023/06/13 14:15:08;;;;;;;8.50;5.88;;;;;;;;;;5045125;28;20094;-60
2023/06/13 14:17:33;;;;;;;8.43;5.38;;;;;;;;;;5043921;28;20499;-62
2023/06/13 14:19:59;;;;;;;9.02;4.85;;;;;;;;;;5043997;28;20037;-59
2023/06/13 14:22:24;;;;;;;8.88;5.10;;;;;;;;;;5045442;28;20052;-59
2023/06/13 14:24:50;;;;;;;8.13;5.60;;;;;;;;;;5045523;28;20037;-59
2023/06/13 14:27:15;;;;;;;8.77;5.20;;;;;;;;;;5045942;28;20033;-59
2023/06/13 14:29:40;;;;;;;8.10;5.70;;;;;;;;;;5045878;28;20388;-59
2023/06/13 14:32:06;;;;;;;6.68;5.32;;;;;;;;;;5077790;28;20430;-59
2023/06/13 14:34:31;;;;;;;7.35;5.03;;;;;;;;;;5045865;28;20040;-59
2023/06/13 14:36:57;;;;;;;9.47;5.83;;;;;;;;;;5025173;28;20050;-59